sensor_id;sensor_type;location;lat;lon;timestamp;P1;durP1;ratioP1;P2;durP2;ratioP2
24681;SDS011;12802;53.390;-2.328;2022-08-19T00:00:19;7.57;;;1.40;;
24681;SDS011;12802;53.390;-2.328;2022-08-19T00:02:45;4.35;;;1.63;;
24681;SDS011;12802;53.390;-2.328;2022-08-19T00:05:12;13.70;;;1.85;;
24681;SDS011;12802;53.390;-2.328;2022-08-19T00:07:39;6.75;;;1.73;;
24681;SDS011;12802;53.390;-2.328;2022-08-19T00:10:08;8.80;;;1.73;;
24681;SDS011;12802;53.390;-2.328;2022-08-19T00:12:36;7.32;;;2.75;;
24681;SDS011;12802;53.390;-2.328;2022-08-19T00:15:07;7.50;;;2.15;;
24681;SDS011;12802;53.390;-2.328;2022-08-19T00:17:41;6.95;;;2.20;;
24681;SDS011;12802;53.390;-2.328;2022-08-19T00:20:09;13.27;;;2.08;;
24681;SDS011;12802;53.390;-2.328;2022-08-19T00:22:38;6.45;;;2.10;;
24681;SDS011;12802;53.390;-2.328;2022-08-19T00:25:06;5.88;;;2.08;;
24681;SDS011;12802;53.390;-2.328;2022-08-19T00:27:33;6.38;;;1.85;;
24681;SDS011;12802;53.390;-2.328;2022-08-19T00:29:59;4.30;;;1.38;;
24681;SDS011;12802;53.390;-2.328;2022-08-19T00:32:28;6.20;;;1.63;;
24681;SDS011;12802;53.390;-2.328;2022-08-19T00:34:54;4.63;;;1.73;;
24681;SDS011;12802;53.390;-2.328;2022-08-19T00:37:21;11.98;;;2.17;;
24681;SDS011;12802;53.390;-2.328;2022-08-19T00:39:48;5.90;;;1.73;;
24681;SDS011;12802;53.390;-2.328;2022-08-19T00:42:16;16.50;;;2.53;;
24681;SDS011;12802;53.390;-2.328;2022-08-19T00:44:43;8.00;;;1.75;;
24681;SDS011;12802;53.390;-2.328;2022-08-19T00:47:10;4.82;;;1.55;;
24681;SDS011;12802;53.390;-2.328;2022-08-19T00:49:41;4.05;;;1.67;;
24681;SDS011;12802;53.390;-2.328;2022-08-19T00:52:15;6.20;;;2.15;;
24681;SDS011;12802;53.390;-2.328;2022-08-19T00:54:44;9.68;;;2.00;;
24681;SDS011;12802;53.390;-2.328;2022-08-19T00:57:14;6.88;;;1.90;;
24681;SDS011;12802;53.390;-2.328;2022-08-19T00:59:44;2.65;;;1.48;;
24681;SDS011;12802;53.390;-2.328;2022-08-19T01:02:12;5.47;;;1.37;;
24681;SDS011;12802;53.390;-2.328;2022-08-19T01:04:39;8.93;;;2.03;;
24681;SDS011;12802;53.390;-2.328;2022-08-19T01:07:05;13.93;;;2.72;;
24681;SDS011;12802;53.390;-2.328;2022-08-19T01:09:31;10.13;;;2.45;;
24681;SDS011;12802;53.390;-2.328;2022-08-19T01:11:57;6.30;;;1.60;;
24681;SDS011;12802;53.390;-2.328;2022-08-19T01:14:23;11.55;;;2.10;;
24681;SDS011;12802;53.390;-2.328;2022-08-19T01:16:50;4.50;;;1.40;;
24681;SDS011;12802;53.390;-2.328;2022-08-19T01:19:31;7.32;;;2.20;;
24681;SDS011;12802;53.390;-2.328;2022-08-19T01:22:02;6.05;;;1.45;;
24681;SDS011;12802;53.390;-2.328;2022-08-19T01:24:35;6.15;;;1.60;;
24681;SDS011;12802;53.390;-2.328;2022-08-19T01:27:03;16.55;;;2.15;;
24681;SDS011;12802;53.390;-2.328;2022-08-19T01:29:30;12.50;;;1.80;;
24681;SDS011;12802;53.390;-2.328;2022-08-19T01:31:57;9.40;;;2.00;;
24681;SDS011;12802;53.390;-2.328;2022-08-19T01:34:23;12.65;;;2.20;;
24681;SDS011;12802;53.390;-2.328;2022-08-19T01:36:48;6.25;;;1.80;;
24681;SDS011;12802;53.390;-2.328;2022-08-19T01:39:20;4.60;;;1.50;;
24681;SDS011;12802;53.390;-2.328;2022-08-19T01:41:48;4.93;;;2.25;;
24681;SDS011;12802;53.390;-2.328;2022-08-19T01:44:14;3.40;;;1.15;;
24681;SDS011;12802;53.390;-2.328;2022-08-19T01:46:41;7.07;;;2.47;;
24681;SDS011;12802;53.390;-2.328;2022-08-19T01:49:07;7.28;;;1.40;;
24681;SDS011;12802;53.390;-2.328;2022-08-19T01:51:33;6.70;;;2.05;;
24681;SDS011;12802;53.390;-2.328;2022-08-19T01:53:59;11.43;;;2.05;;
24681;SDS011;12802;53.390;-2.328;2022-08-19T01:56:25;4.82;;;1.60;;
24681;SDS011;12802;53.390;-2.328;2022-08-19T01:58:55;19.35;;;2.20;;
24681;SDS011;12802;53.390;-2.328;2022-08-19T02:01:26;7.45;;;2.40;;
24681;SDS011;12802;53.390;-2.328;2022-08-19T02:03:52;12.77;;;2.58;;
24681;SDS011;12802;53.390;-2.328;2022-08-19T02:06:19;10.35;;;2.20;;
24681;SDS011;12802;53.390;-2.328;2022-08-19T02:08:45;3.50;;;1.55;;
24681;SDS011;12802;53.390;-2.328;2022-08-19T02:11:23;10.30;;;1.75;;
24681;SDS011;12802;53.390;-2.328;2022-08-19T02:13:53;17.25;;;2.28;;
24681;SDS011;12802;53.390;-2.328;2022-08-19T02:16:19;7.70;;;1.65;;
24681;SDS011;12802;53.390;-2.328;2022-08-19T02:18:46;12.32;;;2.85;;
24681;SDS011;12802;53.390;-2.328;2022-08-19T02:21:16;11.60;;;2.25;;
24681;SDS011;12802;53.390;-2.328;2022-08-19T02:23:43;12.45;;;1.92;;
24681;SDS011;12802;53.390;-2.328;2022-08-19T02:26:09;7.57;;;2.08;;
24681;SDS011;12802;53.390;-2.328;2022-08-19T02:28:35;2.03;;;1.08;;
24681;SDS011;12802;53.390;-2.328;2022-08-19T02:31:01;3.03;;;1.98;;
24681;SDS011;12802;53.390;-2.328;2022-08-19T02:33:28;8.18;;;2.03;;
24681;SDS011;12802;53.390;-2.328;2022-08-19T02:35:54;12.98;;;2.08;;
24681;SDS011;12802;53.390;-2.328;2022-08-19T02:38:19;4.18;;;1.63;;
24681;SDS011;12802;53.390;-2.328;2022-08-19T02:40:56;9.20;;;2.00;;
24681;SDS011;12802;53.390;-2.328;2022-08-19T02:43:24;6.20;;;1.73;;
24681;SDS011;12802;53.390;-2.328;2022-08-19T02:45:51;8.02;;;2.08;;
24681;SDS011;12802;53.390;-2.328;2022-08-19T02:48:18;9.25;;;2.22;;
24681;SDS011;12802;53.390;-2.328;2022-08-19T02:50:46;6.30;;;1.80;;
24681;SDS011;12802;53.390;-2.328;2022-08-19T02:53:12;12.02;;;1.92;;
24681;SDS011;12802;53.390;-2.328;2022-08-19T02:55:45;4.70;;;1.70;;
24681;SDS011;12802;53.390;-2.328;2022-08-19T02:58:12;2.80;;;1.77;;
24681;SDS011;12802;53.390;-2.328;2022-08-19T03:00:46;11.40;;;1.75;;
24681;SDS011;12802;53.390;-2.328;2022-08-19T03:03:17;4.97;;;1.50;;
24681;SDS011;12802;53.390;-2.328;2022-08-19T03:05:44;12.65;;;2.70;;
24681;SDS011;12802;53.390;-2.328;2022-08-19T03:08:11;8.32;;;2.28;;
24681;SDS011;12802;53.390;-2.328;2022-08-19T03:10:44;9.63;;;2.22;;
24681;SDS011;12802;53.390;-2.328;2022-08-19T03:13:13;6.40;;;2.45;;
24681;SDS011;12802;53.390;-2.328;2022-08-19T03:15:43;5.93;;;1.90;;
24681;SDS011;12802;53.390;-2.328;2022-08-19T03:18:11;9.10;;;2.08;;
24681;SDS011;12802;53.390;-2.328;2022-08-19T03:20:42;9.70;;;1.73;;
24681;SDS011;12802;53.390;-2.328;2022-08-19T03:23:10;4.20;;;1.98;;
24681;SDS011;12802;53.390;-2.328;2022-08-19T03:25:38;6.82;;;2.38;;
24681;SDS011;12802;53.390;-2.328;2022-08-19T03:28:07;15.10;;;2.75;;
24681;SDS011;12802;53.390;-2.328;2022-08-19T03:30:33;10.55;;;2.22;;
24681;SDS011;12802;53.390;-2.328;2022-08-19T03:32:59;3.65;;;2.03;;
24681;SDS011;12802;53.390;-2.328;2022-08-19T03:35:24;7.50;;;1.88;;
24681;SDS011;12802;53.390;-2.328;2022-08-19T03:37:50;4.78;;;1.85;;
24681;SDS011;12802;53.390;-2.328;2022-08-19T03:40:17;5.90;;;2.40;;
24681;SDS011;12802;53.390;-2.328;2022-08-19T03:42:44;4.93;;;1.77;;
24681;SDS011;12802;53.390;-2.328;2022-08-19T03:45:11;5.38;;;1.80;;
24681;SDS011;12802;53.390;-2.328;2022-08-19T03:47:37;7.50;;;1.27;;
24681;SDS011;12802;53.390;-2.328;2022-08-19T03:50:03;12.10;;;3.03;;
24681;SDS011;12802;53.390;-2.328;2022-08-19T03:52:30;4.70;;;1.85;;
24681;SDS011;12802;53.390;-2.328;2022-08-19T03:54:56;18.00;;;2.10;;
24681;SDS011;12802;53.390;-2.328;2022-08-19T03:57:21;4.25;;;2.03;;
24681;SDS011;12802;53.390;-2.328;2022-08-19T03:59:47;8.55;;;1.85;;
24681;SDS011;12802;53.390;-2.328;2022-08-19T04:02:13;6.95;;;1.63;;
24681;SDS011;12802;53.390;-2.328;2022-08-19T04:04:40;5.53;;;1.83;;
24681;SDS011;12802;53.390;-2.328;2022-08-19T04:07:09;5.82;;;1.85;;
24681;SDS011;12802;53.390;-2.328;2022-08-19T04:09:36;6.18;;;2.05;;
24681;SDS011;12802;53.390;-2.328;2022-08-19T04:12:03;10.98;;;2.92;;
24681;SDS011;12802;53.390;-2.328;2022-08-19T04:14:30;9.43;;;2.75;;
24681;SDS011;12802;53.390;-2.328;2022-08-19T04:16:57;4.72;;;1.88;;
24681;SDS011;12802;53.390;-2.328;2022-08-19T04:19:24;4.60;;;1.77;;
24681;SDS011;12802;53.390;-2.328;2022-08-19T04:21:51;7.15;;;2.13;;
24681;SDS011;12802;53.390;-2.328;2022-08-19T04:24:19;11.18;;;2.50;;
24681;SDS011;12802;53.390;-2.328;2022-08-19T04:26:46;8.27;;;2.30;;
24681;SDS011;12802;53.390;-2.328;2022-08-19T04:29:17;4.47;;;1.95;;
24681;SDS011;12802;53.390;-2.328;2022-08-19T04:31:50;6.05;;;1.63;;
24681;SDS011;12802;53.390;-2.328;2022-08-19T04:34:19;6.35;;;2.53;;
24681;SDS011;12802;53.390;-2.328;2022-08-19T04:36:49;9.60;;;2.40;;
24681;SDS011;12802;53.390;-2.328;2022-08-19T04:39:17;6.60;;;2.30;;
24681;SDS011;12802;53.390;-2.328;2022-08-19T04:41:45;6.65;;;1.88;;
24681;SDS011;12802;53.390;-2.328;2022-08-19T04:44:33;5.43;;;1.92;;
24681;SDS011;12802;53.390;-2.328;2022-08-19T04:47:01;11.93;;;2.20;;
24681;SDS011;12802;53.390;-2.328;2022-08-19T04:49:30;8.43;;;2.42;;
24681;SDS011;12802;53.390;-2.328;2022-08-19T04:51:56;12.02;;;2.72;;
24681;SDS011;12802;53.390;-2.328;2022-08-19T04:54:23;5.55;;;2.08;;
24681;SDS011;12802;53.390;-2.328;2022-08-19T04:56:50;6.85;;;1.80;;
24681;SDS011;12802;53.390;-2.328;2022-08-19T04:59:17;15.52;;;2.63;;
24681;SDS011;12802;53.390;-2.328;2022-08-19T05:01:45;6.00;;;1.83;;
24681;SDS011;12802;53.390;-2.328;2022-08-19T05:04:16;5.60;;;2.28;;
24681;SDS011;12802;53.390;-2.328;2022-08-19T05:06:44;5.80;;;2.08;;
24681;SDS011;12802;53.390;-2.328;2022-08-19T05:09:10;4.30;;;1.92;;
24681;SDS011;12802;53.390;-2.328;2022-08-19T05:11:36;8.45;;;1.80;;
24681;SDS011;12802;53.390;-2.328;2022-08-19T05:14:04;5.18;;;2.05;;
24681;SDS011;12802;53.390;-2.328;2022-08-19T05:16:31;8.88;;;3.28;;
24681;SDS011;12802;53.390;-2.328;2022-08-19T05:18:57;7.35;;;2.22;;
24681;SDS011;12802;53.390;-2.328;2022-08-19T05:21:41;7.22;;;2.40;;
24681;SDS011;12802;53.390;-2.328;2022-08-19T05:24:27;8.43;;;2.20;;
24681;SDS011;12802;53.390;-2.328;2022-08-19T05:26:54;8.43;;;2.30;;
24681;SDS011;12802;53.390;-2.328;2022-08-19T05:29:22;11.20;;;1.75;;
24681;SDS011;12802;53.390;-2.328;2022-08-19T05:31:50;7.65;;;2.75;;
24681;SDS011;12802;53.390;-2.328;2022-08-19T05:34:17;6.15;;;2.25;;
24681;SDS011;12802;53.390;-2.328;2022-08-19T05:36:47;14.77;;;1.98;;
24681;SDS011;12802;53.390;-2.328;2022-08-19T05:39:14;7.97;;;2.30;;
24681;SDS011;12802;53.390;-2.328;2022-08-19T05:41:43;4.05;;;2.00;;
24681;SDS011;12802;53.390;-2.328;2022-08-19T05:44:11;7.25;;;2.08;;
24681;SDS011;12802;53.390;-2.328;2022-08-19T05:46:38;7.32;;;2.38;;
24681;SDS011;12802;53.390;-2.328;2022-08-19T05:49:05;6.18;;;2.20;;
24681;SDS011;12802;53.390;-2.328;2022-08-19T05:51:31;9.43;;;2.65;;
24681;SDS011;12802;53.390;-2.328;2022-08-19T05:53:59;10.90;;;2.17;;
24681;SDS011;12802;53.390;-2.328;2022-08-19T05:56:26;7.72;;;1.75;;
24681;SDS011;12802;53.390;-2.328;2022-08-19T05:58:51;8.35;;;1.83;;
24681;SDS011;12802;53.390;-2.328;2022-08-19T06:01:19;10.48;;;2.13;;
24681;SDS011;12802;53.390;-2.328;2022-08-19T06:03:46;2.30;;;1.60;;
24681;SDS011;12802;53.390;-2.328;2022-08-19T06:06:13;5.70;;;2.40;;
24681;SDS011;12802;53.390;-2.328;2022-08-19T06:08:41;6.97;;;2.20;;
24681;SDS011;12802;53.390;-2.328;2022-08-19T06:13:59;7.22;;;2.00;;
24681;SDS011;12802;53.390;-2.328;2022-08-19T06:16:28;8.00;;;1.95;;
24681;SDS011;12802;53.390;-2.328;2022-08-19T06:19:00;6.95;;;2.03;;
24681;SDS011;12802;53.390;-2.328;2022-08-19T06:21:29;4.53;;;1.45;;
24681;SDS011;12802;53.390;-2.328;2022-08-19T06:23:55;8.23;;;2.42;;
24681;SDS011;12802;53.390;-2.328;2022-08-19T06:26:22;3.22;;;1.80;;
24681;SDS011;12802;53.390;-2.328;2022-08-19T06:28:49;9.40;;;1.70;;
24681;SDS011;12802;53.390;-2.328;2022-08-19T06:31:20;7.07;;;1.75;;
24681;SDS011;12802;53.390;-2.328;2022-08-19T06:33:50;5.43;;;1.73;;
24681;SDS011;12802;53.390;-2.328;2022-08-19T06:38:55;6.35;;;2.25;;
24681;SDS011;12802;53.390;-2.328;2022-08-19T06:41:23;8.93;;;2.17;;
24681;SDS011;12802;53.390;-2.328;2022-08-19T06:43:49;8.82;;;2.15;;
24681;SDS011;12802;53.390;-2.328;2022-08-19T06:46:16;7.00;;;2.13;;
24681;SDS011;12802;53.390;-2.328;2022-08-19T06:48:43;10.93;;;2.72;;
24681;SDS011;12802;53.390;-2.328;2022-08-19T06:51:10;8.15;;;2.30;;
24681;SDS011;12802;53.390;-2.328;2022-08-19T06:53:36;5.28;;;2.28;;
24681;SDS011;12802;53.390;-2.328;2022-08-19T06:56:02;7.78;;;2.40;;
24681;SDS011;12802;53.390;-2.328;2022-08-19T06:58:28;5.30;;;2.00;;
24681;SDS011;12802;53.390;-2.328;2022-08-19T07:00:59;11.65;;;2.30;;
24681;SDS011;12802;53.390;-2.328;2022-08-19T07:03:32;19.15;;;1.90;;
24681;SDS011;12802;53.390;-2.328;2022-08-19T07:08:35;9.32;;;2.20;;
24681;SDS011;12802;53.390;-2.328;2022-08-19T07:11:04;6.68;;;2.22;;
24681;SDS011;12802;53.390;-2.328;2022-08-19T07:13:32;11.40;;;2.58;;
24681;SDS011;12802;53.390;-2.328;2022-08-19T07:16:08;8.23;;;2.70;;
24681;SDS011;12802;53.390;-2.328;2022-08-19T07:18:36;7.07;;;1.90;;
24681;SDS011;12802;53.390;-2.328;2022-08-19T07:21:07;11.90;;;1.90;;
24681;SDS011;12802;53.390;-2.328;2022-08-19T07:23:35;15.63;;;2.38;;
24681;SDS011;12802;53.390;-2.328;2022-08-19T07:26:08;8.85;;;1.85;;
24681;SDS011;12802;53.390;-2.328;2022-08-19T07:28:36;19.73;;;2.40;;
24681;SDS011;12802;53.390;-2.328;2022-08-19T07:31:07;5.82;;;2.28;;
24681;SDS011;12802;53.390;-2.328;2022-08-19T07:33:34;4.25;;;1.83;;
24681;SDS011;12802;53.390;-2.328;2022-08-19T07:36:03;12.23;;;1.80;;
24681;SDS011;12802;53.390;-2.328;2022-08-19T07:38:30;6.07;;;2.23;;
24681;SDS011;12802;53.390;-2.328;2022-08-19T07:40:57;13.80;;;2.63;;
24681;SDS011;12802;53.390;-2.328;2022-08-19T07:43:22;12.90;;;2.13;;
24681;SDS011;12802;53.390;-2.328;2022-08-19T07:45:51;6.63;;;2.10;;
24681;SDS011;12802;53.390;-2.328;2022-08-19T07:48:26;13.32;;;2.58;;
24681;SDS011;12802;53.390;-2.328;2022-08-19T07:50:57;4.90;;;1.65;;
24681;SDS011;12802;53.390;-2.328;2022-08-19T07:53:30;8.57;;;2.33;;
24681;SDS011;12802;53.390;-2.328;2022-08-19T07:55:57;10.07;;;2.05;;
24681;SDS011;12802;53.390;-2.328;2022-08-19T07:58:36;12.48;;;2.92;;
24681;SDS011;12802;53.390;-2.328;2022-08-19T08:01:04;7.55;;;2.15;;
24681;SDS011;12802;53.390;-2.328;2022-08-19T08:03:31;15.43;;;2.80;;
24681;SDS011;12802;53.390;-2.328;2022-08-19T08:06:16;13.13;;;2.78;;
24681;SDS011;12802;53.390;-2.328;2022-08-19T08:09:02;23.98;;;2.95;;
24681;SDS011;12802;53.390;-2.328;2022-08-19T08:14:43;7.90;;;2.08;;
24681;SDS011;12802;53.390;-2.328;2022-08-19T08:17:12;9.23;;;2.17;;
24681;SDS011;12802;53.390;-2.328;2022-08-19T08:19:40;6.93;;;1.98;;
24681;SDS011;12802;53.390;-2.328;2022-08-19T08:22:07;10.98;;;2.70;;
24681;SDS011;12802;53.390;-2.328;2022-08-19T08:24:54;7.00;;;2.08;;
24681;SDS011;12802;53.390;-2.328;2022-08-19T08:27:23;5.35;;;2.22;;
24681;SDS011;12802;53.390;-2.328;2022-08-19T08:29:49;3.60;;;2.00;;
24681;SDS011;12802;53.390;-2.328;2022-08-19T08:32:15;9.95;;;1.88;;
24681;SDS011;12802;53.390;-2.328;2022-08-19T08:34:41;9.77;;;1.75;;
24681;SDS011;12802;53.390;-2.328;2022-08-19T08:37:07;6.50;;;1.80;;
24681;SDS011;12802;53.390;-2.328;2022-08-19T08:39:33;5.18;;;2.08;;
24681;SDS011;12802;53.390;-2.328;2022-08-19T08:47:40;4.40;;;2.08;;
24681;SDS011;12802;53.390;-2.328;2022-08-19T08:52:50;14.77;;;2.55;;
24681;SDS011;12802;53.390;-2.328;2022-08-19T08:55:28;9.73;;;1.75;;
24681;SDS011;12802;53.390;-2.328;2022-08-19T08:57:59;10.65;;;1.90;;
24681;SDS011;12802;53.390;-2.328;2022-08-19T09:00:31;2.70;;;1.60;;
24681;SDS011;12802;53.390;-2.328;2022-08-19T09:03:39;10.07;;;2.13;;
24681;SDS011;12802;53.390;-2.328;2022-08-19T09:06:07;4.38;;;1.40;;
24681;SDS011;12802;53.390;-2.328;2022-08-19T09:08:54;10.48;;;2.00;;
24681;SDS011;12802;53.390;-2.328;2022-08-19T09:16:28;10.60;;;1.88;;
24681;SDS011;12802;53.390;-2.328;2022-08-19T09:18:56;8.88;;;1.98;;
24681;SDS011;12802;53.390;-2.328;2022-08-19T09:21:25;8.43;;;1.85;;
24681;SDS011;12802;53.390;-2.328;2022-08-19T09:23:52;8.07;;;1.80;;
24681;SDS011;12802;53.390;-2.328;2022-08-19T09:26:19;10.05;;;2.00;;
24681;SDS011;12802;53.390;-2.328;2022-08-19T09:28:47;16.40;;;2.47;;
24681;SDS011;12802;53.390;-2.328;2022-08-19T09:31:16;11.73;;;2.58;;
24681;SDS011;12802;53.390;-2.328;2022-08-19T09:33:44;9.52;;;2.33;;
24681;SDS011;12802;53.390;-2.328;2022-08-19T09:36:12;9.43;;;2.22;;
24681;SDS011;12802;53.390;-2.328;2022-08-19T09:38:39;7.97;;;1.85;;
24681;SDS011;12802;53.390;-2.328;2022-08-19T09:41:14;6.38;;;1.65;;
24681;SDS011;12802;53.390;-2.328;2022-08-19T09:43:44;3.58;;;1.63;;
24681;SDS011;12802;53.390;-2.328;2022-08-19T09:46:11;13.10;;;1.60;;
24681;SDS011;12802;53.390;-2.328;2022-08-19T09:48:38;6.93;;;2.00;;
24681;SDS011;12802;53.390;-2.328;2022-08-19T09:51:09;10.02;;;1.60;;
24681;SDS011;12802;53.390;-2.328;2022-08-19T09:53:45;6.57;;;1.63;;
24681;SDS011;12802;53.390;-2.328;2022-08-19T09:56:12;5.95;;;1.60;;
24681;SDS011;12802;53.390;-2.328;2022-08-19T09:58:39;5.57;;;1.42;;
24681;SDS011;12802;53.390;-2.328;2022-08-19T10:01:06;5.35;;;1.55;;
24681;SDS011;12802;53.390;-2.328;2022-08-19T10:03:32;14.45;;;2.15;;
24681;SDS011;12802;53.390;-2.328;2022-08-19T10:06:00;4.97;;;1.52;;
24681;SDS011;12802;53.390;-2.328;2022-08-19T10:08:28;5.07;;;1.55;;
24681;SDS011;12802;53.390;-2.328;2022-08-19T10:10:56;6.60;;;1.45;;
24681;SDS011;12802;53.390;-2.328;2022-08-19T10:13:24;10.07;;;2.05;;
24681;SDS011;12802;53.390;-2.328;2022-08-19T10:15:53;8.52;;;1.42;;
24681;SDS011;12802;53.390;-2.328;2022-08-19T10:18:21;4.07;;;1.10;;
24681;SDS011;12802;53.390;-2.328;2022-08-19T10:20:48;9.90;;;1.90;;
24681;SDS011;12802;53.390;-2.328;2022-08-19T10:23:16;4.40;;;1.50;;
24681;SDS011;12802;53.390;-2.328;2022-08-19T10:25:43;1.98;;;1.05;;
24681;SDS011;12802;53.390;-2.328;2022-08-19T10:28:09;9.10;;;1.38;;
24681;SDS011;12802;53.390;-2.328;2022-08-19T10:30:40;1.42;;;0.65;;
24681;SDS011;12802;53.390;-2.328;2022-08-19T10:33:06;7.07;;;1.25;;
24681;SDS011;12802;53.390;-2.328;2022-08-19T10:35:33;6.45;;;1.15;;
24681;SDS011;12802;53.390;-2.328;2022-08-19T10:38:00;5.82;;;1.10;;
24681;SDS011;12802;53.390;-2.328;2022-08-19T10:40:27;4.20;;;0.70;;
24681;SDS011;12802;53.390;-2.328;2022-08-19T10:42:54;5.38;;;1.33;;
24681;SDS011;12802;53.390;-2.328;2022-08-19T10:47:52;10.30;;;1.63;;
24681;SDS011;12802;53.390;-2.328;2022-08-19T10:50:18;2.72;;;0.80;;
24681;SDS011;12802;53.390;-2.328;2022-08-19T10:53:04;5.45;;;1.35;;
24681;SDS011;12802;53.390;-2.328;2022-08-19T10:55:33;2.15;;;1.10;;
24681;SDS011;12802;53.390;-2.328;2022-08-19T10:58:19;4.45;;;1.10;;
24681;SDS011;12802;53.390;-2.328;2022-08-19T11:00:51;4.10;;;0.85;;
24681;SDS011;12802;53.390;-2.328;2022-08-19T11:03:19;4.05;;;1.10;;
24681;SDS011;12802;53.390;-2.328;2022-08-19T11:05:44;2.30;;;1.08;;
24681;SDS011;12802;53.390;-2.328;2022-08-19T11:08:10;5.30;;;0.82;;
24681;SDS011;12802;53.390;-2.328;2022-08-19T11:10:37;5.80;;;1.17;;
24681;SDS011;12802;53.390;-2.328;2022-08-19T11:13:07;6.35;;;0.88;;
24681;SDS011;12802;53.390;-2.328;2022-08-19T11:15:33;2.05;;;0.75;;
24681;SDS011;12802;53.390;-2.328;2022-08-19T11:17:59;2.60;;;0.75;;
24681;SDS011;12802;53.390;-2.328;2022-08-19T11:20:25;3.80;;;0.73;;
24681;SDS011;12802;53.390;-2.328;2022-08-19T11:22:51;1.45;;;0.68;;
24681;SDS011;12802;53.390;-2.328;2022-08-19T11:25:18;1.65;;;0.57;;
24681;SDS011;12802;53.390;-2.328;2022-08-19T11:27:44;10.35;;;0.50;;
24681;SDS011;12802;53.390;-2.328;2022-08-19T11:30:12;1.33;;;0.65;;
24681;SDS011;12802;53.390;-2.328;2022-08-19T11:32:40;3.72;;;1.00;;
24681;SDS011;12802;53.390;-2.328;2022-08-19T11:35:06;6.25;;;0.73;;
24681;SDS011;12802;53.390;-2.328;2022-08-19T11:37:32;3.83;;;0.60;;
24681;SDS011;12802;53.390;-2.328;2022-08-19T11:40:03;1.25;;;0.50;;
24681;SDS011;12802;53.390;-2.328;2022-08-19T11:42:30;3.85;;;0.80;;
24681;SDS011;12802;53.390;-2.328;2022-08-19T11:45:15;10.05;;;0.50;;
24681;SDS011;12802;53.390;-2.328;2022-08-19T11:47:40;1.60;;;0.30;;
24681;SDS011;12802;53.390;-2.328;2022-08-19T11:50:06;2.17;;;0.30;;
24681;SDS011;12802;53.390;-2.328;2022-08-19T11:52:32;4.82;;;0.52;;
24681;SDS011;12802;53.390;-2.328;2022-08-19T11:54:58;1.95;;;0.47;;
24681;SDS011;12802;53.390;-2.328;2022-08-19T11:57:24;3.88;;;0.55;;
24681;SDS011;12802;53.390;-2.328;2022-08-19T11:59:50;2.85;;;0.60;;
24681;SDS011;12802;53.390;-2.328;2022-08-19T12:02:17;8.02;;;0.77;;
24681;SDS011;12802;53.390;-2.328;2022-08-19T12:04:44;0.47;;;0.22;;
24681;SDS011;12802;53.390;-2.328;2022-08-19T12:07:10;4.50;;;0.32;;
24681;SDS011;12802;53.390;-2.328;2022-08-19T12:09:36;1.58;;;0.40;;
24681;SDS011;12802;53.390;-2.328;2022-08-19T12:12:02;4.45;;;0.90;;
24681;SDS011;12802;53.390;-2.328;2022-08-19T12:14:28;0.88;;;0.57;;
24681;SDS011;12802;53.390;-2.328;2022-08-19T12:16:55;1.45;;;0.40;;
24681;SDS011;12802;53.390;-2.328;2022-08-19T12:19:21;3.30;;;0.40;;
24681;SDS011;12802;53.390;-2.328;2022-08-19T12:21:47;3.90;;;0.70;;
24681;SDS011;12802;53.390;-2.328;2022-08-19T12:24:14;3.03;;;0.63;;
24681;SDS011;12802;53.390;-2.328;2022-08-19T12:26:40;1.17;;;0.35;;
24681;SDS011;12802;53.390;-2.328;2022-08-19T12:29:06;7.10;;;0.52;;
24681;SDS011;12802;53.390;-2.328;2022-08-19T12:31:33;1.05;;;0.43;;
24681;SDS011;12802;53.390;-2.328;2022-08-19T12:33:59;1.85;;;0.43;;
24681;SDS011;12802;53.390;-2.328;2022-08-19T12:36:25;5.07;;;1.15;;
24681;SDS011;12802;53.390;-2.328;2022-08-19T12:38:51;2.97;;;0.60;;
24681;SDS011;12802;53.390;-2.328;2022-08-19T12:41:18;3.78;;;0.45;;
24681;SDS011;12802;53.390;-2.328;2022-08-19T12:43:44;1.85;;;0.77;;
24681;SDS011;12802;53.390;-2.328;2022-08-19T12:46:10;2.58;;;0.65;;
24681;SDS011;12802;53.390;-2.328;2022-08-19T12:48:37;1.70;;;0.60;;
24681;SDS011;12802;53.390;-2.328;2022-08-19T12:51:07;3.40;;;0.65;;
24681;SDS011;12802;53.390;-2.328;2022-08-19T12:53:35;1.70;;;0.40;;
24681;SDS011;12802;53.390;-2.328;2022-08-19T12:56:01;2.72;;;0.38;;
24681;SDS011;12802;53.390;-2.328;2022-08-19T12:58:28;0.32;;;0.30;;
24681;SDS011;12802;53.390;-2.328;2022-08-19T13:00:54;1.35;;;0.60;;
24681;SDS011;12802;53.390;-2.328;2022-08-19T13:03:20;1.67;;;0.50;;
24681;SDS011;12802;53.390;-2.328;2022-08-19T13:05:52;3.35;;;0.60;;
24681;SDS011;12802;53.390;-2.328;2022-08-19T13:08:18;3.40;;;0.80;;
24681;SDS011;12802;53.390;-2.328;2022-08-19T13:10:44;3.58;;;0.70;;
24681;SDS011;12802;53.390;-2.328;2022-08-19T13:13:10;2.65;;;0.52;;
24681;SDS011;12802;53.390;-2.328;2022-08-19T13:15:36;1.02;;;0.60;;
24681;SDS011;12802;53.390;-2.328;2022-08-19T13:20:31;3.88;;;0.55;;
24681;SDS011;12802;53.390;-2.328;2022-08-19T13:22:58;3.33;;;0.65;;
24681;SDS011;12802;53.390;-2.328;2022-08-19T13:25:23;6.68;;;1.15;;
24681;SDS011;12802;53.390;-2.328;2022-08-19T13:27:50;2.55;;;0.60;;
24681;SDS011;12802;53.390;-2.328;2022-08-19T13:30:17;1.45;;;0.60;;
24681;SDS011;12802;53.390;-2.328;2022-08-19T13:33:02;1.25;;;0.45;;
24681;SDS011;12802;53.390;-2.328;2022-08-19T13:38:16;0.55;;;0.30;;
24681;SDS011;12802;53.390;-2.328;2022-08-19T13:40:45;1.00;;;0.50;;
24681;SDS011;12802;53.390;-2.328;2022-08-19T13:43:11;2.10;;;0.40;;
24681;SDS011;12802;53.390;-2.328;2022-08-19T13:45:37;1.52;;;0.57;;
24681;SDS011;12802;53.390;-2.328;2022-08-19T13:48:06;0.80;;;0.30;;
24681;SDS011;12802;53.390;-2.328;2022-08-19T13:50:35;4.22;;;0.60;;
24681;SDS011;12802;53.390;-2.328;2022-08-19T13:53:06;5.13;;;0.28;;
24681;SDS011;12802;53.390;-2.328;2022-08-19T13:55:33;2.38;;;0.38;;
24681;SDS011;12802;53.390;-2.328;2022-08-19T13:58:00;3.72;;;0.70;;
24681;SDS011;12802;53.390;-2.328;2022-08-19T14:00:28;3.40;;;0.30;;
24681;SDS011;12802;53.390;-2.328;2022-08-19T14:02:58;0.73;;;0.52;;
24681;SDS011;12802;53.390;-2.328;2022-08-19T14:05:24;1.80;;;0.45;;
24681;SDS011;12802;53.390;-2.328;2022-08-19T14:07:52;1.45;;;0.40;;
24681;SDS011;12802;53.390;-2.328;2022-08-19T14:10:18;0.85;;;0.40;;
24681;SDS011;12802;53.390;-2.328;2022-08-19T14:12:45;0.85;;;0.40;;
24681;SDS011;12802;53.390;-2.328;2022-08-19T14:15:11;1.45;;;0.45;;
24681;SDS011;12802;53.390;-2.328;2022-08-19T14:17:38;0.82;;;0.40;;
24681;SDS011;12802;53.390;-2.328;2022-08-19T14:20:05;4.40;;;0.50;;
24681;SDS011;12802;53.390;-2.328;2022-08-19T14:22:33;1.65;;;0.57;;
24681;SDS011;12802;53.390;-2.328;2022-08-19T14:25:00;2.20;;;0.30;;
24681;SDS011;12802;53.390;-2.328;2022-08-19T14:27:26;8.15;;;0.50;;
24681;SDS011;12802;53.390;-2.328;2022-08-19T14:29:52;0.77;;;0.35;;
24681;SDS011;12802;53.390;-2.328;2022-08-19T14:32:18;0.57;;;0.25;;
24681;SDS011;12802;53.390;-2.328;2022-08-19T14:34:44;5.82;;;0.80;;
24681;SDS011;12802;53.390;-2.328;2022-08-19T14:37:13;4.80;;;0.50;;
24681;SDS011;12802;53.390;-2.328;2022-08-19T14:39:40;3.13;;;0.43;;
24681;SDS011;12802;53.390;-2.328;2022-08-19T14:42:10;7.03;;;0.63;;
24681;SDS011;12802;53.390;-2.328;2022-08-19T14:44:37;2.22;;;0.50;;
24681;SDS011;12802;53.390;-2.328;2022-08-19T14:47:03;2.80;;;0.30;;
24681;SDS011;12802;53.390;-2.328;2022-08-19T14:49:29;2.42;;;0.43;;
24681;SDS011;12802;53.390;-2.328;2022-08-19T14:51:55;1.50;;;0.70;;
24681;SDS011;12802;53.390;-2.328;2022-08-19T14:54:21;1.83;;;0.40;;
24681;SDS011;12802;53.390;-2.328;2022-08-19T14:56:47;2.10;;;0.55;;
24681;SDS011;12802;53.390;-2.328;2022-08-19T14:59:13;0.85;;;0.40;;
24681;SDS011;12802;53.390;-2.328;2022-08-19T15:01:39;1.88;;;0.68;;
24681;SDS011;12802;53.390;-2.328;2022-08-19T15:04:05;1.35;;;0.50;;
24681;SDS011;12802;53.390;-2.328;2022-08-19T15:06:31;2.15;;;0.30;;
24681;SDS011;12802;53.390;-2.328;2022-08-19T15:08:58;3.80;;;0.60;;